Ciudad Juárez, México

1:17 AM MST en Enero 29, 2015 (GMT -0700)
Vista del Sol | Change Station
CLOSE
Current Station
Estación meteorológica personal
Location: El Paso, TX
Altura: 4010 ft
Estaciones meteorológicas cercanas

Alt 4010 ft 31.76 °N, 106.34 °W | Updated 3 minutes ago

Partly Cloudy
Parcialmente nublado
50.1 ° F
Sensación térmica 50.1 ° F
N
0.0
Viento Variable Viento desde SSO
Gusts 0.0 mph

Hoy
Alta -- | Baja -- ° F
--% Posibilidad de precipitaciones
Ayer
Alta -- | Baja -- ° F
Precip. -- pul
7:00 AM 5:37 PM
Gibosa creciente, 72% visible
Presión 30.04 pul
Visibilidad 10.0 Millas
Nubes Baja 20000 ft
Punto de rocío 39 ° F
Humedad 66%
Precipitaciones 0.00 pul
Espesor de la nieve No disponible.
UV 0 de una escala de 12
Polen No disponible.
Calidad del aire No disponible.
Flu Activity No disponible.
METAR KELP 290751Z 00000KT 10SM FEW200 10/03 A3017 RMK AO2 SLP172 T01000028

More Conditions Fewer Conditions

Presión 30.04 pul
Visibilidad 10.0 Millas
Nubes Baja 20000 ft
Punto de rocío 39 ° F
Humedad 66%
Precipitaciones 0.00 pul
Espesor de la nieve No disponible.
UV 0 de una escala de 12
Polen No disponible.
Calidad del aire No disponible.
Flu Activity No disponible.
METAR KELP 290751Z 00000KT 10SM FEW200 10/03 A3017 RMK AO2 SLP172 T01000028

More Conditions Fewer Conditions

10-Day Weather Forecast

Almanac

Astronomía

Jan. 29, 2015 Salida Puesta
Hora real
Crepúsculo civil
Crepúsculo náutico
Crepúsculo astronómico
Luna
Horas de luz
Horas de luz
Tomorrow will be .
, % of the Moon is Illuminated

Extremos de hoy

Máximos del país Bajas del país

Community

WunderPhotos

Upload Photos

1,791,387 ¡fotos cargadas!

WunderBlogs® & News

Nearby

Calidad del aire

  Calidad del aire Índice AQ Contaminante
Not available.

Grosos de nieve

Estación Profundido Altura

Actividad de terremotos

Ciudad Distance Mag. Tiempo y dato
Magnitud mínima muestra es 2,5.

Temperaturas de aguas costeras

Lugar Temperatura

Estaciones meteorológicas cercanas